Time;durP1;ratioP1;P1;durP2;ratioP2;P2;SDS_P1;SDS_P2;PMS_P1;PMS_P2;Temp;Humidity;BMP_temperature;BMP_pressure;BME280_temperature;BME280_humidity;BME280_pressure;Samples;Min_cycle;Max_cycle;Signal;HPM_P1;HPM_P2
2022/11/29 00:01:23;;;;;;;;;5.75;4.50;;;;;11.50;70.32;100962.78;4866651;29;45815;-74
2022/11/29 00:03:49;;;;;;;;;4.75;4.75;;;;;11.56;70.20;100967.09;4867020;29;45448;-74
2022/11/29 00:06:20;;;;;;;;;3.75;3.50;;;;;11.77;70.59;101002.06;4866049;29;45588;-74
2022/11/29 00:08:47;;;;;;;;;4.25;4.00;;;;;11.45;70.33;100950.53;4866450;29;45468;-74
2022/11/29 00:14:01;;;;;;;;;4.75;4.00;;;;;11.69;70.57;100996.94;4863063;29;45483;-74
2022/11/29 00:16:26;;;;;;;;;4.75;4.50;;;;;11.54;70.32;100970.72;4863882;29;45516;-74
2022/11/29 00:18:51;;;;;;;;;4.50;4.00;;;;;11.49;70.16;100965.50;4849154;29;45642;-74
2022/11/29 00:21:17;;;;;;;;;4.50;4.00;;;;;11.55;70.46;100976.03;4851283;29;47886;-74
2022/11/29 00:23:42;;;;;;;;;8.00;5.50;;;;;11.53;70.29;100980.56;4865079;29;45362;-74
2022/11/29 00:26:08;;;;;;;;;8.00;5.00;;;;;11.58;70.10;100986.63;4866765;29;45253;-74
2022/11/29 00:28:35;;;;;;;;;3.00;2.25;;;;;11.45;70.47;100964.75;4867033;29;45293;-74
2022/11/29 00:31:10;;;;;;;;;7.25;5.00;;;;;11.44;70.71;100965.69;4866489;29;45546;-73
2022/11/29 00:33:36;;;;;;;;;7.75;6.00;;;;;11.57;70.49;100990.22;4866711;29;45439;-74
2022/11/29 00:36:01;;;;;;;;;4.25;4.00;;;;;11.38;70.74;100957.00;4849659;29;45426;-74
2022/11/29 00:38:29;;;;;;;;;2.25;2.25;;;;;11.29;70.40;100945.69;4866442;29;45377;-74
2022/11/29 00:40:54;;;;;;;;;9.25;6.00;;;;;11.40;70.80;100965.84;4866654;29;45526;-74
2022/11/29 00:43:20;;;;;;;;;5.00;4.00;;;;;11.33;70.87;100959.81;4866678;29;45444;-74
2022/11/29 00:45:45;;;;;;;;;8.00;3.75;;;;;11.26;70.61;100950.22;4849808;29;45397;-74
2022/11/29 00:48:13;;;;;;;;;5.75;5.00;;;;;11.45;70.77;100988.81;4848927;29;45530;-74
2022/11/29 00:50:39;;;;;;;;;5.00;5.00;;;;;11.43;70.41;100984.44;4864760;29;48035;-74
2022/11/29 00:53:04;;;;;;;;;4.00;4.00;;;;;11.53;70.46;101004.59;4849907;29;45491;-74
2022/11/29 00:55:29;;;;;;;;;5.75;4.75;;;;;11.54;70.34;101005.47;4863563;29;45800;-74
2022/11/29 00:57:55;;;;;;;;;5.00;5.00;;;;;11.41;70.46;100984.50;4856768;29;45238;-74
2022/11/29 01:00:20;;;;;;;;;4.00;3.75;;;;;11.27;70.82;100968.88;4849371;29;46768;-74
2022/11/29 01:02:46;;;;;;;;;5.00;4.00;;;;;11.36;70.70;100975.75;4866629;29;45338;-74
2022/11/29 01:05:11;;;;;;;;;3.00;3.00;;;;;11.35;70.48;100979.34;4865970;29;45579;-74
2022/11/29 01:07:36;;;;;;;;;4.25;4.00;;;;;11.26;70.41;100964.47;4849422;29;45414;-74
2022/11/29 01:10:03;;;;;;;;;3.25;3.00;;;;;11.37;70.45;100982.81;4848676;29;46908;-74
2022/11/29 01:12:28;;;;;;;;;4.00;3.00;;;;;11.13;70.53;100945.28;4849320;29;46047;-74
2022/11/29 01:14:54;;;;;;;;;1.50;1.50;;;;;11.26;70.55;100968.91;4866306;29;45351;-73
2022/11/29 01:17:19;;;;;;;;;4.50;3.50;;;;;11.17;71.09;100943.38;4865364;29;45369;-73
2022/11/29 01:19:44;;;;;;;;;3.00;3.00;;;;;11.49;70.67;101010.97;4848229;29;46982;-74
2022/11/29 01:22:12;;;;;;;;;3.00;3.00;;;;;11.43;70.87;100997.81;4865088;29;45394;-74
2022/11/29 01:24:37;;;;;;;;;5.25;4.75;;;;;11.47;71.18;101002.13;4865469;29;45409;-74
2022/11/29 01:27:03;;;;;;;;;3.25;3.25;;;;;11.57;70.57;101037.47;4865945;29;45321;-73
2022/11/29 01:29:28;;;;;;;;;4.50;3.00;;;;;11.34;70.95;100995.41;4848936;29;48012;-74
2022/11/29 01:31:53;;;;;;;;;4.00;4.00;;;;;11.34;70.92;101003.44;4849323;29;45430;-73
2022/11/29 01:34:19;;;;;;;;;1.75;1.75;;;;;11.27;70.52;100992.06;4865952;29;45390;-73
2022/11/29 01:36:44;;;;;;;;;2.50;2.50;;;;;11.12;70.81;100972.91;4865588;29;45563;-74
2022/11/29 01:39:10;;;;;;;;;5.50;3.25;;;;;11.34;70.73;101012.31;4865482;29;46307;-74
2022/11/29 01:41:36;;;;;;;;;2.00;2.00;;;;;11.42;70.75;101030.81;4848980;29;45341;-74
2022/11/29 01:44:10;;;;;;;;;3.00;2.50;;;;;11.50;70.96;101040.31;4865865;29;45469;-74
2022/11/29 01:46:38;;;;;;;;;5.25;3.00;;;;;11.36;71.06;101030.97;4845927;29;45492;-74
2022/11/29 01:49:14;;;;;;;;;3.25;3.00;;;;;11.53;70.79;101055.41;4846525;29;47323;-74
2022/11/29 01:51:42;;;;;;;;;2.75;2.75;;;;;11.21;70.79;101000.25;4864866;29;45619;-74
2022/11/29 01:54:09;;;;;;;;;3.75;2.50;;;;;11.41;71.08;101042.41;4853508;29;45345;-74
2022/11/29 01:56:37;;;;;;;;;3.00;2.75;;;;;11.19;70.95;101008.31;4854443;29;45433;-74
2022/11/29 01:59:07;;;;;;;;;4.00;3.75;;;;;11.44;71.07;101048.56;4847496;29;47256;-74
2022/11/29 02:01:34;;;;;;;;;2.00;2.00;;;;;11.59;70.80;101068.56;4865641;29;45341;-74
2022/11/29 02:04:00;;;;;;;;;3.00;3.00;;;;;11.22;70.82;101007.38;4864325;29;45360;-74
2022/11/29 02:06:27;;;;;;;;;4.75;3.00;;;;;11.42;70.77;101041.50;4864857;29;45349;-74
2022/11/29 02:08:53;;;;;;;;;3.75;3.00;;;;;11.43;71.03;101044.13;4853099;29;45489;-73
2022/11/29 02:11:55;;;;;;;;;3.25;3.25;;;;;11.22;71.26;101010.03;4865357;29;45324;-74
2022/11/29 02:14:33;;;;;;;;;3.00;3.00;;;;;11.57;70.88;101061.53;4864106;29;45397;-74
2022/11/29 02:17:29;;;;;;;;;4.75;3.00;;;;;11.64;70.87;101073.78;4852384;29;45457;-74
2022/11/29 02:20:19;;;;;;;;;3.00;3.00;;;;;11.64;71.00;101081.78;4847877;29;47230;-73
2022/11/29 02:22:55;;;;;;;;;5.00;4.00;;;;;11.39;71.00;101047.78;4863768;29;45322;-74
2022/11/29 02:25:59;;;;;;;;;3.00;3.00;;;;;11.59;71.16;101083.75;4863908;29;45518;-74
2022/11/29 02:28:36;;;;;;;;;5.25;4.00;;;;;11.61;71.21;101079.22;4789165;29;45497;-74
2022/11/29 02:31:29;;;;;;;;;2.50;2.50;;;;;11.62;71.17;101072.94;4787658;29;45623;-74
2022/11/29 02:34:09;;;;;;;;;2.25;2.25;;;;;11.42;71.17;101041.50;4827658;29;45380;-74
2022/11/29 02:37:03;;;;;;;;;4.25;3.25;;;;;11.66;71.23;101079.94;4844928;29;45425;-74
2022/11/29 02:39:28;;;;;;;;;2.50;2.00;;;;;11.67;71.20;101081.69;4856508;29;45646;-74
2022/11/29 02:42:02;;;;;;;;;2.50;2.00;;;;;11.66;71.10;101080.84;4857973;29;46051;-73
2022/11/29 02:45:09;;;;;;;;;3.75;3.75;;;;;11.66;70.95;101078.16;4851714;29;45451;-74
2022/11/29 02:48:11;;;;;;;;;4.00;2.50;;;;;11.33;71.10;101021.28;4864019;29;45465;-74
2022/11/29 02:50:45;;;;;;;;;4.00;4.00;;;;;11.56;70.95;101065.09;4847136;29;45640;-74
2022/11/29 02:53:36;;;;;;;;;5.25;3.00;;;;;11.68;70.92;101084.31;4864184;29;46517;-74
2022/11/29 02:56:19;;;;;;;;;3.50;3.00;;;;;11.38;70.93;101039.84;4847825;29;45546;-74
2022/11/29 02:59:03;;;;;;;;;3.50;3.25;;;;;11.68;70.82;101088.81;4844700;29;45758;-74
2022/11/29 03:01:39;;;;;;;;;8.00;2.50;;;;;11.64;71.02;101081.78;4847869;29;45897;-74
2022/11/29 03:04:24;;;;;;;;;3.00;3.00;;;;;11.44;70.94;101056.56;4847741;29;48087;-74
2022/11/29 03:07:08;;;;;;;;;7.50;4.00;;;;;11.67;71.11;101093.25;4863953;29;45547;-74
2022/11/29 03:09:50;;;;;;;;;4.25;3.00;;;;;11.42;70.88;101052.19;4864726;29;45445;-74
2022/11/29 03:12:39;;;;;;;;;5.00;4.00;;;;;11.69;70.92;101095.88;4836827;29;45597;-74
2022/11/29 03:15:32;;;;;;;;;4.00;4.00;;;;;11.48;70.83;101063.56;4864368;29;46445;-74
2022/11/29 03:18:27;;;;;;;;;5.00;4.00;;;;;11.68;70.80;101097.69;4858444;29;45326;-74
2022/11/29 03:21:11;;;;;;;;;5.25;3.00;;;;;11.67;70.87;101098.59;4863886;29;45401;-74
2022/11/29 03:23:44;;;;;;;;;5.50;4.00;;;;;11.53;70.82;101071.44;4842641;29;45595;-74
2022/11/29 03:26:12;;;;;;;;;3.00;3.00;;;;;11.69;70.73;101103.91;4847479;29;46173;-73
2022/11/29 03:28:54;;;;;;;;;3.50;2.25;;;;;11.49;70.81;101069.78;4864476;29;45396;-74
2022/11/29 03:31:28;;;;;;;;;5.00;4.00;;;;;11.37;70.58;101060.34;4864376;29;45269;-73
2022/11/29 03:34:14;;;;;;;;;3.00;2.25;;;;;11.59;70.57;101091.75;4844472;29;45458;-73
2022/11/29 03:37:05;;;;;;;;;4.00;3.25;;;;;11.48;70.76;101074.25;4837187;29;48127;-74
2022/11/29 03:40:07;;;;;;;;;3.50;3.50;;;;;11.59;70.41;101084.59;4862734;29;46028;-74
2022/11/29 03:42:56;;;;;;;;;4.00;4.00;;;;;11.75;70.84;101108.22;4864365;29;45411;-74
2022/11/29 03:45:35;;;;;;;;;4.00;3.50;;;;;11.48;70.58;101074.25;4864266;29;45392;-74
2022/11/29 03:48:11;;;;;;;;;1.50;1.50;;;;;11.74;70.82;101123.38;4863314;29;46202;-73
2022/11/29 03:51:18;;;;;;;;;3.25;3.25;;;;;11.54;70.72;101085.69;4864104;29;45481;-74
2022/11/29 03:53:52;;;;;;;;;8.50;6.00;;;;;11.66;70.64;101112.03;4805877;29;45462;-74
2022/11/29 03:56:37;;;;;;;;;4.00;3.75;;;;;11.37;70.49;101073.69;4849397;29;45509;-74
2022/11/29 03:59:28;;;;;;;;;5.25;3.00;;;;;11.71;70.84;101131.50;4866814;29;46176;-74
2022/11/29 04:01:59;;;;;;;;;4.00;4.00;;;;;11.70;70.79;101124.41;4867276;29;45526;-74
2022/11/29 04:04:57;;;;;;;;;5.00;4.50;;;;;11.76;70.62;101142.03;4867562;29;45736;-74
2022/11/29 04:07:29;;;;;;;;;4.25;3.00;;;;;11.75;70.79;101135.81;4865913;29;45331;-74
2022/11/29 04:10:22;;;;;;;;;4.00;2.75;;;;;11.74;70.48;101138.53;4864372;29;48360;-74
2022/11/29 04:13:19;;;;;;;;;4.00;4.00;;;;;11.68;70.67;101135.13;4865688;29;45907;-74
2022/11/29 04:16:25;;;;;;;;;4.50;4.50;;;;;11.70;70.67;101143.13;4841286;29;45498;-74
2022/11/29 04:19:06;;;;;;;;;6.00;3.75;;;;;11.44;70.54;101107.38;4861779;29;45368;-74
2022/11/29 04:21:40;;;;;;;;;5.00;4.00;;;;;11.73;70.40;101147.47;4865993;29;45539;-74
2022/11/29 04:24:21;;;;;;;;;2.50;2.50;;;;;11.74;70.67;101155.47;4849739;29;45332;-74
2022/11/29 04:27:22;;;;;;;;;4.00;4.00;;;;;11.52;70.50;101117.81;4839405;29;45525;-74
2022/11/29 04:29:50;;;;;;;;;4.75;4.75;;;;;11.74;70.51;101160.81;4866789;29;45394;-74
2022/11/29 04:32:43;;;;;;;;;4.00;4.00;;;;;11.45;70.29;101117.13;4864353;29;46373;-74
2022/11/29 04:35:20;;;;;;;;;5.25;4.00;;;;;11.75;70.23;101162.56;4861868;29;45660;-74
2022/11/29 04:38:04;;;;;;;;;2.25;2.25;;;;;11.74;70.39;101160.81;4865423;29;45533;-74
2022/11/29 04:40:35;;;;;;;;;4.50;4.00;;;;;11.76;70.45;101164.34;4865048;29;45650;-74
2022/11/29 04:43:11;;;;;;;;;5.25;3.25;;;;;11.77;70.27;101173.22;4866648;29;45419;-74
2022/11/29 04:46:18;;;;;;;;;3.50;2.50;;;;;11.75;70.17;101181.28;4866563;29;45573;-74
2022/11/29 04:48:49;;;;;;;;;4.75;4.00;;;;;11.69;70.44;101176.13;4848836;29;45451;-74
2022/11/29 04:51:28;;;;;;;;;4.75;3.75;;;;;11.67;70.25;101165.47;4849349;29;45549;-74
2022/11/29 04:53:59;;;;;;;;;3.50;3.25;;;;;11.33;70.57;101112.16;4861927;29;48228;-74
2022/11/29 04:56:45;;;;;;;;;4.00;4.00;;;;;11.38;70.48;101117.38;4854564;29;45331;-74
2022/11/29 04:59:39;;;;;;;;;1.50;1.50;;;;;11.47;70.37;101139.31;4853055;29;45532;-74
2022/11/29 05:02:07;;;;;;;;;4.25;4.25;;;;;11.74;70.52;101184.00;4865486;29;45352;-74
2022/11/29 05:04:36;;;;;;;;;5.25;4.50;;;;;11.76;70.42;101184.84;4862694;29;47493;-74
2022/11/29 05:07:20;;;;;;;;;4.25;4.00;;;;;11.77;70.41;101198.16;4866028;29;45582;-73
2022/11/29 05:09:45;;;;;;;;;4.50;4.50;;;;;11.77;70.26;101189.28;4866535;29;45448;-74
2022/11/29 05:12:22;;;;;;;;;3.00;3.00;;;;;11.77;70.38;101191.94;4866344;29;45385;-74
2022/11/29 05:14:58;;;;;;;;;4.75;3.00;;;;;11.42;70.15;101135.91;4849275;29;48191;-74
2022/11/29 05:17:54;;;;;;;;;4.50;4.50;;;;;11.79;70.33;101195.44;4848417;29;45473;-74
2022/11/29 05:20:57;;;;;;;;;4.00;4.00;;;;;11.76;69.91;101201.78;4838288;29;45314;-74
2022/11/29 05:23:25;;;;;;;;;2.75;1.00;;;;;11.76;70.24;101206.22;4859546;29;45618;-74
2022/11/29 05:26:20;;;;;;;;;5.00;4.00;;;;;11.76;70.18;101207.13;4865848;29;45466;-74
2022/11/29 05:28:51;;;;;;;;;5.00;4.50;;;;;11.75;69.83;101201.81;4831037;29;45673;-74
2022/11/29 05:31:29;;;;;;;;;6.00;6.00;;;;;11.65;69.92;101199.41;4865987;29;45633;-74
2022/11/29 05:34:10;;;;;;;;;3.75;3.00;;;;;11.71;70.14;101218.84;4861507;29;45615;-74
2022/11/29 05:36:45;;;;;;;;;5.00;5.00;;;;;11.70;70.08;101217.13;4865582;29;46290;-74
2022/11/29 05:39:36;;;;;;;;;8.00;5.75;;;;;11.55;70.25;101191.72;4865639;29;45491;-74
2022/11/29 05:42:11;;;;;;;;;9.00;6.75;;;;;11.47;70.11;101186.56;4849013;29;45519;-74
2022/11/29 05:44:43;;;;;;;;;5.00;5.00;;;;;11.50;69.68;101189.16;4865893;29;45339;-74
2022/11/29 05:47:13;;;;;;;;;6.00;6.00;;;;;11.48;69.62;101194.56;4864644;29;45702;-74
2022/11/29 05:49:43;;;;;;;;;10.00;9.25;;;;;11.63;70.00;101219.97;4865519;29;45637;-74
2022/11/29 05:52:18;;;;;;;;;7.50;5.75;;;;;11.74;69.99;101245.53;4865181;29;45348;-74
2022/11/29 05:55:06;;;;;;;;;7.25;7.25;;;;;11.36;70.07;101183.34;4864955;29;45547;-74
2022/11/29 05:57:57;;;;;;;;;7.25;6.50;;;;;11.73;70.15;101241.09;4842424;29;47192;-74
2022/11/29 06:00:26;;;;;;;;;6.00;6.00;;;;;11.54;70.03;101222.03;4864955;29;45600;-74
2022/11/29 06:03:09;;;;;;;;;5.50;5.50;;;;;11.75;70.33;101242.81;4865397;29;45445;-74
2022/11/29 06:05:50;;;;;;;;;8.00;6.00;;;;;11.54;70.30;101214.00;4847750;29;45624;-74
2022/11/29 06:08:23;;;;;;;;;9.50;8.00;;;;;11.47;69.99;101210.63;4848334;29;47153;-74
2022/11/29 06:11:05;;;;;;;;;10.00;7.50;;;;;11.57;70.07;101230.84;4848567;29;45732;-74
2022/11/29 06:13:55;;;;;;;;;9.75;7.25;;;;;11.78;70.38;101255.22;4848624;29;45464;-74
2022/11/29 06:16:35;;;;;;;;;8.50;8.50;;;;;11.78;70.03;101260.56;4865200;29;45485;-74
2022/11/29 06:19:41;;;;;;;;;8.00;7.25;;;;;11.42;69.93;101200.06;4864312;29;47103;-74
2022/11/29 06:22:15;;;;;;;;;7.00;6.00;;;;;11.76;69.95;101263.28;4847040;29;45899;-74
2022/11/29 06:24:55;;;;;;;;;7.75;7.75;;;;;11.36;69.85;101210.97;4865307;29;45283;-74
2022/11/29 06:27:33;;;;;;;;;7.75;7.75;;;;;11.76;69.88;101276.66;4865124;29;45478;-74
2022/11/29 06:30:05;;;;;;;;;13.00;9.75;;;;;11.75;69.70;101272.22;4853309;29;45623;-74
2022/11/29 06:32:43;;;;;;;;;10.00;9.00;;;;;11.64;69.44;101267.19;4847944;29;45630;-74
2022/11/29 06:35:18;;;;;;;;;8.75;8.75;;;;;11.32;69.39;101211.94;4864991;29;45421;-74
2022/11/29 06:37:52;;;;;;;;;11.75;8.25;;;;;11.40;69.39;101231.31;4864974;29;45357;-74
2022/11/29 06:40:17;;;;;;;;;9.00;8.50;;;;;11.44;69.34;101234.78;4847668;29;47870;-74
2022/11/29 06:42:43;;;;;;;;;10.50;10.00;;;;;11.32;69.39;101220.81;4848076;29;45744;-74
2022/11/29 06:45:13;;;;;;;;;15.75;13.25;;;;;11.32;69.66;101236.00;4862367;29;45702;-74
2022/11/29 06:47:45;;;;;;;;;13.00;11.75;;;;;11.61;70.09;101288.66;4864028;29;45341;-74
2022/11/29 06:50:34;;;;;;;;;17.00;15.25;;;;;11.62;70.16;101293.09;4864594;29;46251;-74
2022/11/29 06:53:13;;;;;;;;;15.75;15.00;;;;;11.56;70.17;101290.59;4864744;29;45684;-74
2022/11/29 06:55:46;;;;;;;;;17.00;14.00;;;;;11.31;70.55;101244.97;4843882;29;45354;-74
2022/11/29 06:58:46;;;;;;;;;16.75;13.00;;;;;11.61;70.25;101298.47;4847976;29;45476;-74
2022/11/29 07:01:24;;;;;;;;;13.75;13.00;;;;;11.54;70.52;101288.88;4843891;29;46110;-73
2022/11/29 07:04:09;;;;;;;;;17.00;14.25;;;;;11.59;70.64;101298.50;4863255;29;45575;-73
2022/11/29 07:06:35;;;;;;;;;21.25;19.25;;;;;11.28;70.50;101253.06;4855501;29;45716;-74
2022/11/29 07:09:10;;;;;;;;;22.25;22.25;;;;;11.54;70.57;101307.59;4846946;29;45827;-74
2022/11/29 07:11:36;;;;;;;;;18.50;18.00;;;;;11.31;70.89;101269.00;4864438;29;45464;-74
2022/11/29 07:14:02;;;;;;;;;20.00;17.75;;;;;11.38;70.55;101283.94;4863830;29;45399;-74
2022/11/29 07:16:32;;;;;;;;;20.00;19.75;;;;;11.41;71.00;101291.00;4851213;29;45348;-74
2022/11/29 07:19:25;;;;;;;;;19.25;19.25;;;;;11.60;70.65;101328.81;4864276;29;45576;-73
2022/11/29 07:22:16;;;;;;;;;19.50;19.50;;;;;11.49;70.86;101303.25;4851227;29;47625;-73
2022/11/29 07:25:07;;;;;;;;;13.00;11.25;;;;;11.41;70.76;101294.56;4844387;29;45358;-74
2022/11/29 07:27:48;;;;;;;;;20.25;18.75;;;;;11.26;70.68;101274.47;4867717;29;45504;-74
2022/11/29 07:30:36;;;;;;;;;21.25;21.00;;;;;11.47;70.74;101314.91;4848610;29;45533;-73
2022/11/29 07:33:29;;;;;;;;;16.75;15.25;;;;;11.57;70.67;101328.91;4861802;29;45486;-75
2022/11/29 07:36:29;;;;;;;;;20.50;18.75;;;;;11.51;70.76;101324.59;4848457;29;45382;-75
2022/11/29 07:39:38;;;;;;;;;25.75;22.75;;;;;11.56;70.84;101335.16;4862593;29;45524;-75
2022/11/29 07:42:24;;;;;;;;;26.25;20.50;;;;;11.36;70.74;101301.84;4866216;29;45438;-74
2022/11/29 07:44:55;;;;;;;;;27.50;24.75;;;;;11.50;71.11;101323.72;4866537;29;46655;-74
2022/11/29 07:47:21;;;;;;;;;25.75;21.75;;;;;11.33;70.80;101291.22;4866061;29;45686;-74
2022/11/29 07:49:46;;;;;;;;;20.75;19.75;;;;;11.44;71.00;101309.63;4866790;29;45492;-74
2022/11/29 07:52:14;;;;;;;;;22.00;19.00;;;;;11.55;71.23;101342.31;4867038;29;45463;-74
2022/11/29 07:54:39;;;;;;;;;21.50;20.50;;;;;11.55;70.82;101338.75;4864657;29;45671;-74
2022/11/29 07:57:05;;;;;;;;;18.25;17.75;;;;;11.46;70.91;101326.50;4866977;29;45306;-74
2022/11/29 07:59:30;;;;;;;;;21.75;19.00;;;;;11.48;70.79;101336.25;4866812;29;45467;-74
2022/11/29 08:01:56;;;;;;;;;24.50;22.25;;;;;11.48;70.98;101338.91;4859524;29;45584;-75
2022/11/29 08:04:21;;;;;;;;;21.75;21.50;;;;;11.43;70.97;101331.94;4848324;29;46879;-77
2022/11/29 08:07:00;;;;;;;;;18.00;18.00;;;;;11.40;70.86;101321.34;4874493;29;45431;-77
2022/11/29 08:09:34;;;;;;;;;19.75;19.75;;;;;11.43;70.62;101332.81;4849890;29;45568;-78
2022/11/29 08:12:10;;;;;;;;;25.25;21.50;;;;;11.27;70.90;101310.09;4863173;29;45667;-76
2022/11/29 08:14:43;;;;;;;;;25.50;21.00;;;;;11.59;70.66;101359.13;4860981;29;46390;-76
2022/11/29 08:17:11;;;;;;;;;22.25;19.25;;;;;11.12;70.64;101293.50;4863873;29;45694;-77
2022/11/29 08:19:37;;;;;;;;;22.50;19.00;;;;;11.12;70.46;101298.88;4844397;29;45541;-71
2022/11/29 08:22:18;;;;;;;;;;;;;;;;;;;;;
2022/11/29 08:24:46;;;;;;;;;25.75;18.00;;;;;11.04;70.66;101306.22;4861148;29;75299;-74
2022/11/29 08:27:16;;;;;;;;;22.75;18.25;;;;;11.06;70.65;101314.16;4865025;29;45703;-74
2022/11/29 08:29:46;;;;;;;;;21.75;19.00;;;;;11.15;70.89;101332.66;4866441;29;45827;-74
2022/11/29 08:32:13;;;;;;;;;22.00;19.00;;;;;11.42;70.90;101378.31;4855869;29;45886;-74
2022/11/29 08:34:59;;;;;;;;;18.50;17.75;;;;;11.16;70.67;101339.78;4865678;29;45509;-74
2022/11/29 08:37:35;;;;;;;;;20.25;18.50;;;;;11.38;70.37;101380.19;4853631;29;46110;-75
2022/11/29 08:40:02;;;;;;;;;23.25;20.00;;;;;11.16;70.83;101361.16;4847689;29;45362;-74
2022/11/29 08:42:31;;;;;;;;;27.50;23.25;;;;;11.23;70.22;101373.44;4848605;29;45625;-74
2022/11/29 08:45:09;;;;;;;;;29.00;27.00;;;;;10.93;70.45;101338.53;4864581;29;46507;-75
2022/11/29 08:47:35;;;;;;;;;28.00;24.50;;;;;10.94;70.81;101355.44;4865591;29;45701;-74
2022/11/29 08:50:22;;;;;;;;;37.25;34.00;;;;;11.24;70.55;101417.06;4864622;29;45465;-74
2022/11/29 08:55:52;;;;;;;;;36.50;35.00;;;;;10.61;70.49;101358.00;4862940;29;45752;-74
2022/11/29 08:58:20;;;;;;;;;38.50;34.75;;;;;10.67;70.65;101376.53;4846798;29;46031;-75
2022/11/29 09:00:50;;;;;;;;;36.25;32.00;;;;;10.66;71.01;101393.47;4866074;29;45348;-74
2022/11/29 09:06:08;;;;;;;;;37.25;34.25;;;;;10.61;70.66;101407.81;4864269;29;46265;-75
2022/11/29 09:08:36;;;;;;;;;32.25;30.00;;;;;10.34;71.26;101376.38;4845394;29;45818;-75
2022/11/29 09:11:14;;;;;;;;;34.75;28.50;;;;;10.23;70.88;101373.00;4865457;29;45360;-74
2022/11/29 09:13:44;;;;;;;;;30.75;28.00;;;;;10.64;71.61;101448.72;4837905;29;45583;-75
2022/11/29 09:16:22;;;;;;;;;26.25;26.25;;;;;10.28;71.49;101402.28;4856204;29;47239;-75
2022/11/29 09:19:01;;;;;;;;;;;;;;;;;;;;;
2022/11/29 09:21:33;;;;;;;;;34.50;28.75;;;;;10.43;71.35;101415.31;4861928;29;68843;-75
2022/11/29 09:24:00;;;;;;;;;29.25;21.50;;;;;10.25;71.20;101392.53;4846724;29;45550;-75
2022/11/29 09:26:30;;;;;;;;;28.75;24.25;;;;;10.61;71.57;101459.44;4848066;29;48110;-74
2022/11/29 09:28:59;;;;;;;;;31.25;29.75;;;;;10.53;71.82;101442.72;4864186;29;45603;-75
2022/11/29 09:31:26;;;;;;;;;30.00;28.00;;;;;10.68;71.51;101471.75;4842661;29;45494;-74
2022/11/29 09:33:53;;;;;;;;;23.25;21.75;;;;;10.24;71.63;101412.13;4862607;29;45429;-74
2022/11/29 09:36:18;;;;;;;;;32.00;32.00;;;;;10.52;71.54;101464.97;4863362;29;46700;-74
2022/11/29 09:38:46;;;;;;;;;34.00;31.25;;;;;10.33;71.33;101437.78;4861182;29;45435;-75
2022/11/29 09:41:43;;;;;;;;;29.50;29.50;;;;;10.22;71.75;101421.94;4844677;29;45520;-75
2022/11/29 09:44:38;;;;;;;;;26.50;22.75;;;;;10.22;71.74;101431.75;4844322;29;45525;-75
2022/11/29 09:47:18;;;;;;;;;33.50;30.00;;;;;10.62;72.10;101495.03;4850981;29;46182;-75
2022/11/29 09:50:07;;;;;;;;;28.00;25.50;;;;;10.53;71.53;101472.94;4850020;29;45329;-75
2022/11/29 09:53:08;;;;;;;;;33.50;29.75;;;;;10.65;71.88;101490.50;4834846;29;45602;-75
2022/11/29 09:56:05;;;;;;;;;29.00;29.00;;;;;10.36;71.92;101441.25;4837338;29;45559;-75
2022/11/29 09:58:42;;;;;;;;;32.00;28.25;;;;;10.69;71.30;101493.97;4829413;29;47737;-75
2022/11/29 10:01:15;;;;;;;;;28.50;26.25;;;;;10.30;72.01;101428.00;4844007;29;46169;-75
2022/11/29 10:03:45;;;;;;;;;19.75;18.50;;;;;10.56;71.68;101464.00;4830009;29;45830;-75
2022/11/29 10:06:29;;;;;;;;;19.75;16.00;;;;;10.55;71.49;101459.56;4827134;29;45585;-75
2022/11/29 10:09:02;;;;;;;;;18.50;17.75;;;;;10.94;71.55;101521.03;4831648;29;47278;-75
2022/11/29 10:11:38;;;;;;;;;23.75;21.00;;;;;10.50;71.26;101443.63;4841703;29;45769;-75
2022/11/29 10:14:38;;;;;;;;;20.75;18.50;;;;;11.03;71.07;101522.66;4825075;29;45826;-75
2022/11/29 10:17:20;;;;;;;;;22.00;17.25;;;;;10.90;70.54;101506.00;4835572;29;45442;-75
2022/11/29 10:19:51;;;;;;;;;17.50;15.50;;;;;10.82;70.87;101494.59;4827790;29;47228;-75
2022/11/29 10:22:25;;;;;;;;;19.75;17.50;;;;;10.55;70.89;101465.78;4819151;29;45497;-73
2022/11/29 10:24:57;;;;;;;;;22.25;16.50;;;;;10.97;70.55;101515.63;4833398;29;45546;-74
2022/11/29 10:27:26;;;;;;;;;17.00;17.00;;;;;10.96;70.31;101531.69;4840143;29;45464;-73
2022/11/29 10:29:55;;;;;;;;;25.00;19.25;;;;;10.71;70.24;101503.72;4818915;29;48277;-73
2022/11/29 10:32:24;;;;;;;;;19.00;17.75;;;;;10.87;70.58;101528.31;4844348;29;45718;-73
2022/11/29 10:34:50;;;;;;;;;20.75;19.75;;;;;10.87;70.06;101533.66;4842753;29;45407;-71
2022/11/29 10:37:20;;;;;;;;;27.00;24.50;;;;;10.88;70.59;101531.88;4840518;29;45573;-73
2022/11/29 10:40:03;;;;;;;;;25.00;23.25;;;;;10.68;70.64;101498.44;4861032;29;46433;-74
2022/11/29 10:42:47;;;;;;;;;19.00;16.75;;;;;10.70;70.58;101498.41;4870574;29;45510;-73
2022/11/29 10:45:32;;;;;;;;;24.00;20.50;;;;;10.99;70.17;101543.19;4864778;29;45536;-73
2022/11/29 10:48:11;;;;;;;;;24.00;23.00;;;;;10.72;70.04;101505.47;4848371;29;45551;-73
2022/11/29 10:50:40;;;;;;;;;26.50;24.25;;;;;10.94;70.03;101534.41;4861574;29;45698;-73
2022/11/29 10:53:30;;;;;;;;;39.00;34.50;;;;;10.68;69.98;101498.44;4846502;29;45392;-73
2022/11/29 10:56:07;;;;;;;;;41.50;34.00;;;;;10.88;70.19;101535.41;4860744;29;45517;-73
2022/11/29 10:58:51;;;;;;;;;31.00;24.75;;;;;10.69;70.17;101510.91;4863220;29;45352;-73
2022/11/29 11:01:19;;;;;;;;;39.25;27.75;;;;;10.78;70.37;101530.31;4862381;29;45805;-73
2022/11/29 11:03:53;;;;;;;;;30.25;28.75;;;;;10.91;70.07;101545.19;4862634;29;45653;-73
2022/11/29 11:06:21;;;;;;;;;27.75;26.00;;;;;10.94;70.43;101542.41;4844678;29;45410;-73
2022/11/29 11:08:51;;;;;;;;;25.50;24.50;;;;;10.80;70.29;101512.47;4862942;29;45532;-73
2022/11/29 11:11:32;;;;;;;;;26.75;24.25;;;;;10.86;70.51;101518.56;4863175;29;45795;-73
2022/11/29 11:13:59;;;;;;;;;35.25;30.50;;;;;11.06;70.08;101542.16;4863212;29;45669;-73
2022/11/29 11:16:25;;;;;;;;;27.25;25.00;;;;;11.07;69.41;101543.03;4862621;29;45479;-73
2022/11/29 11:18:51;;;;;;;;;26.00;21.75;;;;;10.93;69.52;101525.50;4844278;29;45599;-73
2022/11/29 11:21:20;;;;;;;;;29.00;25.00;;;;;10.89;70.03;101512.25;4845957;29;46759;-73
2022/11/29 11:23:56;;;;;;;;;26.00;23.00;;;;;10.95;69.32;101522.81;4861493;29;45334;-73
2022/11/29 11:26:24;;;;;;;;;25.00;21.00;;;;;11.03;70.34;101547.56;4863155;29;45605;-73
2022/11/29 11:28:58;;;;;;;;;19.00;18.50;;;;;11.02;70.27;101545.81;4845922;29;46029;-73
2022/11/29 11:31:33;;;;;;;;;23.50;23.00;;;;;11.05;70.06;101540.41;4844769;29;48239;-73
2022/11/29 11:34:32;;;;;;;;;29.50;24.00;;;;;11.09;69.08;101543.88;4857393;29;45451;-73
2022/11/29 11:37:22;;;;;;;;;27.00;24.75;;;;;11.07;69.63;101545.72;4860690;29;45410;-73
2022/11/29 11:39:50;;;;;;;;;30.50;25.25;;;;;10.80;69.35;101497.31;4862791;29;45678;-73
2022/11/29 11:42:35;;;;;;;;;25.25;22.00;;;;;10.90;69.64;101522.03;4861356;29;45475;-73
2022/11/29 11:45:22;;;;;;;;;28.25;24.50;;;;;10.99;69.19;101547.66;4861402;29;45767;-73
2022/11/29 11:47:51;;;;;;;;;21.75;20.00;;;;;10.74;69.71;101503.66;4849941;29;45566;-73
2022/11/29 11:50:48;;;;;;;;;20.75;17.50;;;;;10.85;69.66;101521.25;4846041;29;45613;-73
2022/11/29 11:53:35;;;;;;;;;27.50;24.00;;;;;10.89;69.48;101517.59;4843818;29;48764;-73
2022/11/29 11:56:06;;;;;;;;;26.25;24.75;;;;;10.90;69.20;101522.91;4863225;29;45914;-73
2022/11/29 11:58:55;;;;;;;;;32.25;30.00;;;;;10.72;69.68;101494.78;4858547;29;45462;-73
2022/11/29 12:01:35;;;;;;;;;34.00;30.50;;;;;10.92;69.80;101539.78;4844045;29;45737;-73
2022/11/29 12:04:18;;;;;;;;;23.75;22.50;;;;;11.02;69.30;101539.59;4860021;29;46563;-73
2022/11/29 12:06:53;;;;;;;;;25.00;24.00;;;;;10.86;69.44;101514.97;4862176;29;45966;-73
2022/11/29 12:09:24;;;;;;;;;29.00;24.75;;;;;11.06;69.42;101542.16;4861671;29;45591;-73
2022/11/29 12:11:53;;;;;;;;;35.50;27.00;;;;;11.08;69.43;101540.34;4843593;29;45634;-73